Baytown, Texas
Current Conditions -  °F | °C
As of 12:50 AM on Sunday 23 Nov 2014 (Local Time) from KEFD Reporting Station
Thunderstorm Thunderstorm  
Wind Chill: 64°   Ceiling: 1200
Heat Index: 64°   Visibility: 6mi
Dew Point: 64°   Wind: 7mph
Humidity: 100%   Direction: 120°ESE
Pressure: 29.75"   Gusts: NA
Location:  29.73°N, 95°W
Report Text: KEFD 230650Z 12006KT 6SM -TSRA BKN012CB OVC040 18/18 A2975 RMK OCNL LTGICCG E TS E MOV E PRESSFR
Loading
Personal Weather Stations






























Interactive Weather Map New forecast layout! Learn more

10-Day Weather Forecast

Advertisements
Track Severe Weather on mobile